Time;durP1;ratioP1;P1;durP2;ratioP2;P2;SDS_P1;SDS_P2;PMS_P1;PMS_P2;Temp;Humidity;BMP_temperature;BMP_pressure;BME280_temperature;BME280_humidity;BME280_pressure;Samples;Min_cycle;Max_cycle;Signal;HPM_P1;HPM_P2
2022/05/08 00:02:16;;;;;;;;;19.25;19.25;;;;;18.12;54.92;101754.94;5037184;28;46213;-46
2022/05/08 00:04:42;;;;;;;;;23.80;19.60;;;;;18.07;54.95;101760.34;5037123;28;45373;-45
2022/05/08 00:07:07;;;;;;;;;19.00;18.00;;;;;17.95;54.91;101755.59;5037596;28;45362;-49
2022/05/08 00:09:33;;;;;;;;;23.25;19.75;;;;;17.74;55.11;101718.09;5037675;28;45375;-49
2022/05/08 00:11:58;;;;;;;;;18.25;17.25;;;;;17.90;55.31;101761.00;5036996;28;45428;-48
2022/05/08 00:14:24;;;;;;;;;19.00;17.00;;;;;17.78;55.40;101749.00;5037295;28;45342;-47
2022/05/08 00:16:49;;;;;;;;;27.00;24.25;;;;;17.72;56.05;101757.19;5037107;28;45452;-44
2022/05/08 00:19:15;;;;;;;;;22.50;18.00;;;;;17.82;55.64;101751.06;5037598;28;45342;-45
2022/05/08 00:21:40;;;;;;;;;20.25;19.25;;;;;17.85;55.60;101760.84;5035758;28;45350;-47
2022/05/08 00:24:06;;;;;;;;;21.25;21.00;;;;;17.79;55.49;101751.56;5035619;28;45375;-48
2022/05/08 00:26:32;;;;;;;;;20.25;18.00;;;;;17.80;55.19;101746.84;5037067;28;45422;-46
2022/05/08 00:28:57;;;;;;;;;20.00;18.00;;;;;17.80;55.41;101749.59;5002561;28;45578;-44
2022/05/08 00:31:24;;;;;;;;;22.25;16.50;;;;;17.65;55.68;101736.19;5035435;28;46389;-45
2022/05/08 00:33:49;;;;;;;;;27.20;21.60;;;;;17.67;55.76;101742.34;5035567;28;45354;-47
2022/05/08 00:36:15;;;;;;;;;18.00;16.75;;;;;17.79;55.43;101756.25;5069228;28;45464;-50
2022/05/08 00:38:40;;;;;;;;;22.00;19.75;;;;;17.80;55.58;101753.25;5037209;28;45406;-47
2022/05/08 00:41:07;;;;;;;;;20.75;17.75;;;;;17.80;55.38;101752.38;5036837;28;46071;-46
2022/05/08 00:43:41;;;;;;;;;20.40;19.60;;;;;17.79;55.49;101747.91;5035638;28;45440;-45
2022/05/08 00:46:09;;;;;;;;;20.00;19.00;;;;;17.78;55.43;101747.09;5036902;28;45323;-46
2022/05/08 00:48:34;;;;;;;;;19.40;18.40;;;;;17.69;55.86;101754.91;5035540;28;45423;-47
2022/05/08 00:51:01;;;;;;;;;23.25;21.25;;;;;17.60;56.12;101750.75;5036412;28;46824;-47
2022/05/08 00:53:28;;;;;;;;;24.20;20.20;;;;;17.58;56.06;101747.38;5036821;28;45370;-46
2022/05/08 00:55:55;;;;;;;;;19.60;18.00;;;;;17.51;56.02;101741.06;5036845;28;45421;-48
2022/05/08 00:58:20;;;;;;;;;21.20;20.20;;;;;17.60;55.82;101756.28;5068810;28;45516;-48
2022/05/08 01:00:46;;;;;;;;;24.25;24.25;;;;;17.61;55.82;101755.25;5036662;28;46171;-47
2022/05/08 01:03:11;;;;;;;;;27.00;21.75;;;;;17.59;55.84;101757.38;5036813;28;45464;-47
2022/05/08 01:05:41;;;;;;;;;20.00;17.00;;;;;17.54;55.98;101765.56;5036913;28;45294;-49
2022/05/08 01:08:07;;;;;;;;;22.80;20.20;;;;;17.16;56.66;101726.78;5036787;28;45351;-46
2022/05/08 01:10:33;;;;;;;;;19.40;17.60;;;;;17.13;56.67;101732.78;5036267;28;45685;-45
2022/05/08 01:12:58;;;;;;;;;22.25;20.75;;;;;17.25;57.01;101751.41;5036583;28;45165;-47
2022/05/08 01:15:24;;;;;;;;;23.25;19.25;;;;;17.20;56.90;101761.28;5036510;28;45337;-48
2022/05/08 01:17:52;;;;;;;;;23.25;19.00;;;;;17.28;56.81;101759.28;5035546;28;45586;-49
2022/05/08 01:20:17;;;;;;;;;21.60;17.60;;;;;17.23;57.06;101748.03;5036585;28;45409;-50
2022/05/08 01:22:43;;;;;;;;;26.75;21.00;;;;;17.22;56.93;101749.13;5036164;28;45512;-47
2022/05/08 01:25:08;;;;;;;;;20.25;16.00;;;;;17.18;56.81;101748.75;5036732;28;45420;-49
2022/05/08 01:27:34;;;;;;;;;16.25;16.25;;;;;17.17;57.32;101750.66;5051852;28;45732;-49
2022/05/08 01:29:59;;;;;;;;;18.00;18.00;;;;;16.95;57.54;101725.28;5036546;28;46267;-50
2022/05/08 01:32:25;;;;;;;;;20.50;18.25;;;;;17.03;57.64;101743.56;5036297;28;45381;-50
2022/05/08 01:34:50;;;;;;;;;24.50;19.75;;;;;16.95;57.45;101739.16;5036492;28;45314;-48
2022/05/08 01:37:16;;;;;;;;;21.50;18.25;;;;;17.00;57.20;101747.63;5036413;28;45621;-47
2022/05/08 01:39:41;;;;;;;;;27.75;23.00;;;;;16.94;57.47;101749.41;5017092;28;45440;-47
2022/05/08 01:42:07;;;;;;;;;19.25;16.00;;;;;16.92;57.56;101750.72;5036116;28;45269;-47
2022/05/08 01:44:33;;;;;;;;;21.60;20.60;;;;;16.89;57.70;101752.00;5034494;28;45375;-47
2022/05/08 01:49:43;;;;;;;;;21.60;19.20;;;;;16.83;58.10;101755.72;5035965;28;45330;-47
2022/05/08 01:52:09;;;;;;;;;24.80;18.00;;;;;16.73;57.93;101752.59;5035963;28;45187;-48
2022/05/08 01:54:35;;;;;;;;;20.50;20.50;;;;;16.62;58.65;101755.06;5036093;28;45387;-49
2022/05/08 01:57:00;;;;;;;;;22.50;20.50;;;;;16.52;58.84;101754.72;5036204;28;45663;-46
2022/05/08 01:59:26;;;;;;;;;22.25;21.00;;;;;16.53;58.67;101748.09;5035033;28;46022;-44
2022/05/08 02:01:51;;;;;;;;;27.75;24.50;;;;;16.57;58.83;101759.56;5035188;28;45400;-47
2022/05/08 02:04:17;;;;;;;;;21.25;20.50;;;;;16.34;58.93;101702.88;5035918;28;45401;-48
2022/05/08 02:06:43;;;;;;;;;19.00;17.50;;;;;16.49;58.42;101720.00;5035865;28;45843;-46
2022/05/08 02:09:08;;;;;;;;;24.00;24.00;;;;;16.65;58.36;101745.44;5034086;28;46298;-47
2022/05/08 02:11:34;;;;;;;;;22.00;19.00;;;;;16.71;58.05;101744.50;5034233;28;45535;-45
2022/05/08 02:14:00;;;;;;;;;26.00;23.25;;;;;16.81;58.05;101749.53;5035250;28;45375;-45
2022/05/08 02:16:25;;;;;;;;;21.00;20.50;;;;;16.46;58.22;101697.44;5035831;28;45328;-48
2022/05/08 02:18:51;;;;;;;;;20.75;20.75;;;;;16.65;58.13;101748.22;5034881;28;45286;-45
2022/05/08 02:21:17;;;;;;;;;20.75;20.75;;;;;16.40;58.94;101735.22;5035605;28;45374;-47
2022/05/08 02:23:42;;;;;;;;;24.00;22.00;;;;;16.14;59.12;101701.16;5035667;28;45367;-47
2022/05/08 02:26:08;;;;;;;;;23.00;20.75;;;;;16.47;58.69;101752.63;5035323;28;45575;-47
2022/05/08 02:28:34;;;;;;;;;19.25;16.00;;;;;16.40;59.42;101747.13;5035061;28;46261;-45
2022/05/08 02:30:59;;;;;;;;;24.75;19.75;;;;;16.45;58.84;101754.78;5034980;28;45399;-47
2022/05/08 02:33:25;;;;;;;;;21.25;21.00;;;;;16.34;59.65;101748.03;5035396;28;45549;-47
2022/05/08 02:35:50;;;;;;;;;22.00;20.50;;;;;16.28;59.82;101762.81;5035276;28;45622;-48
2022/05/08 02:38:16;;;;;;;;;23.00;18.75;;;;;16.25;59.39;101760.50;5034719;28;46229;-44
2022/05/08 02:40:41;;;;;;;;;24.50;21.00;;;;;16.40;59.00;101757.41;5067624;28;45768;-49
2022/05/08 02:43:06;;;;;;;;;23.50;20.25;;;;;16.39;59.17;101767.63;5034921;28;45521;-48
2022/05/08 02:45:32;;;;;;;;;21.75;19.75;;;;;16.18;59.20;101723.69;5035424;28;45805;-46
2022/05/08 02:47:57;;;;;;;;;25.00;24.00;;;;;16.32;59.68;101766.00;5067107;28;46028;-47
2022/05/08 02:50:24;;;;;;;;;23.25;20.50;;;;;16.26;59.28;101765.81;5034762;28;45510;-46
2022/05/08 02:52:50;;;;;;;;;28.60;26.80;;;;;16.29;59.56;101766.44;5035180;28;45355;-48
2022/05/08 03:00:44;;;;;;;;;31.20;24.40;;;;;16.07;60.03;101770.41;5033759;28;45399;-44
2022/05/08 03:03:10;;;;;;;;;32.25;25.25;;;;;15.95;60.90;101772.22;5035323;28;45405;-46
2022/05/08 03:05:35;;;;;;;;;22.00;20.25;;;;;15.77;61.30;101771.00;5034337;28;45540;-48
2022/05/08 03:08:01;;;;;;;;;32.25;28.25;;;;;15.84;61.49;101777.34;5035301;28;46321;-45
2022/05/08 03:10:27;;;;;;;;;31.75;27.50;;;;;15.77;61.37;101773.78;5035221;28;45294;-44
2022/05/08 03:12:53;;;;;;;;;24.00;19.80;;;;;15.74;61.42;101776.97;5037837;28;45300;-44
2022/05/08 03:15:18;;;;;;;;;32.75;25.00;;;;;15.78;61.22;101778.25;5038703;28;45521;-44
2022/05/08 03:17:44;;;;;;;;;32.00;29.50;;;;;15.62;61.25;101746.41;5038309;28;46445;-48
2022/05/08 03:20:11;;;;;;;;;33.75;32.00;;;;;15.68;61.55;101783.41;5038283;28;45550;-47
2022/05/08 03:22:36;;;;;;;;;34.20;28.60;;;;;15.64;62.05;101782.16;5038769;28;45334;-45
2022/05/08 03:25:02;;;;;;;;;36.00;32.75;;;;;15.70;61.49;101779.34;5038923;28;45892;-46
2022/05/08 03:27:28;;;;;;;;;42.75;33.50;;;;;15.76;61.19;101776.75;5038181;28;45724;-46
2022/05/08 03:29:53;;;;;;;;;39.60;34.00;;;;;15.80;61.09;101787.16;5038244;28;45367;-46
2022/05/08 03:32:19;;;;;;;;;39.75;31.50;;;;;15.81;61.56;101779.72;5038101;28;45420;-47
2022/05/08 03:34:45;;;;;;;;;40.50;35.50;;;;;15.71;61.97;101778.28;5038256;28;45535;-47
2022/05/08 03:37:10;;;;;;;;;41.50;34.50;;;;;15.42;61.49;101721.63;5038068;28;45944;-45
2022/05/08 03:39:36;;;;;;;;;40.75;34.75;;;;;15.79;61.72;101781.88;5036475;28;45352;-47
2022/05/08 03:42:01;;;;;;;;;44.00;35.50;;;;;15.77;60.91;101781.22;5038091;28;45350;-46
2022/05/08 03:44:27;;;;;;;;;40.75;34.00;;;;;15.73;61.39;101764.22;5036886;28;45380;-44
2022/05/08 03:46:52;;;;;;;;;45.25;37.25;;;;;15.69;61.92;101774.06;5036552;28;47315;-45
2022/05/08 03:49:18;;;;;;;;;46.00;36.75;;;;;15.76;61.50;101772.09;5037712;28;45284;-49
2022/05/08 03:51:43;;;;;;;;;45.75;36.50;;;;;15.66;62.01;101775.34;5028610;28;45527;-50
2022/05/08 03:54:09;;;;;;;;;48.75;40.25;;;;;15.64;62.01;101774.69;5034818;28;45210;-46
2022/05/08 03:56:35;;;;;;;;;41.00;35.25;;;;;15.56;61.88;101758.34;5037385;28;46617;-46
2022/05/08 03:59:01;;;;;;;;;39.00;34.00;;;;;15.46;62.58;101775.41;5036816;28;45476;-45
2022/05/08 04:01:27;;;;;;;;;45.75;34.00;;;;;15.54;62.05;101774.34;5036614;28;45460;-46
2022/05/08 04:03:52;;;;;;;;;41.00;35.20;;;;;15.65;62.05;101781.09;5036623;28;45487;-47
2022/05/08 04:06:18;;;;;;;;;50.00;40.75;;;;;15.45;61.84;101746.94;5063649;28;45531;-47
2022/05/08 04:08:44;;;;;;;;;40.25;36.50;;;;;15.68;61.86;101772.31;5037367;28;45417;-46
2022/05/08 04:11:10;;;;;;;;;43.40;36.40;;;;;15.45;62.02;101748.84;5036684;28;45473;-46
2022/05/08 04:13:36;;;;;;;;;43.50;35.25;;;;;15.69;62.02;101788.72;5052060;28;45277;-47
2022/05/08 04:16:16;;;;;;;;;53.50;41.25;;;;;15.58;62.32;101787.50;5037287;28;46879;-46
2022/05/08 04:18:42;;;;;;;;;36.40;32.20;;;;;15.50;62.79;101773.94;5036761;28;45412;-45
2022/05/08 04:21:08;;;;;;;;;43.50;35.75;;;;;15.65;62.05;101773.66;5037499;28;45439;-46
2022/05/08 04:26:17;;;;;;;;;47.60;37.60;;;;;15.56;62.14;101758.34;5037098;28;45386;-46
2022/05/08 04:28:43;;;;;;;;;53.25;41.50;;;;;15.65;62.32;101778.31;5036643;28;45457;-46
2022/05/08 04:31:08;;;;;;;;;48.00;39.50;;;;;15.70;62.10;101789.59;5052712;28;45461;-48
2022/05/08 04:33:34;;;;;;;;;50.25;41.00;;;;;15.41;63.36;101784.38;5037150;28;45376;-47
2022/05/08 04:35:59;;;;;;;;;48.50;40.00;;;;;15.37;63.52;101791.41;5035229;28;45869;-48
2022/05/08 04:38:25;;;;;;;;;55.00;41.50;;;;;15.47;63.62;101790.94;5036600;28;45447;-47
2022/05/08 04:40:50;;;;;;;;;51.00;41.25;;;;;15.21;63.59;101767.03;5036750;28;45315;-46
2022/05/08 04:43:16;;;;;;;;;50.75;42.00;;;;;15.38;63.28;101789.50;5035788;28;45348;-45
2022/05/08 04:45:41;;;;;;;;;48.25;40.75;;;;;15.43;63.22;101792.47;5036548;28;45568;-46
2022/05/08 04:48:07;;;;;;;;;51.25;40.75;;;;;15.39;63.29;101794.84;5036705;28;45409;-47
2022/05/08 04:50:32;;;;;;;;;53.50;42.25;;;;;15.22;63.15;101766.81;5036624;28;45237;-48
2022/05/08 04:52:58;;;;;;;;;48.75;39.75;;;;;15.36;63.78;101797.19;5036929;28;45141;-46
2022/05/08 04:55:23;;;;;;;;;49.75;41.00;;;;;15.46;63.38;101797.56;5036321;28;46347;-45
2022/05/08 04:57:49;;;;;;;;;48.75;38.75;;;;;15.28;63.65;101796.38;5036367;28;45244;-44
2022/05/08 05:00:15;;;;;;;;;51.00;41.50;;;;;15.30;63.69;101804.41;5018465;28;45562;-47
2022/05/08 05:02:41;;;;;;;;;53.80;41.80;;;;;15.35;63.85;101806.53;5036675;28;45870;-47
2022/05/08 05:05:07;;;;;;;;;51.75;41.50;;;;;15.42;63.25;101813.75;5035955;28;45729;-47
2022/05/08 05:07:32;;;;;;;;;50.25;41.75;;;;;15.47;63.55;101818.63;5036210;28;45411;-48
2022/05/08 05:09:58;;;;;;;;;54.00;41.25;;;;;15.48;63.07;101812.00;5036256;28;45361;-46
2022/05/08 05:12:24;;;;;;;;;48.00;40.50;;;;;15.48;63.01;101820.31;5036402;28;45433;-45
2022/05/08 05:14:49;;;;;;;;;49.25;39.50;;;;;15.37;63.32;101832.06;5036177;28;45510;-47
2022/05/08 05:17:14;;;;;;;;;48.00;39.00;;;;;15.38;63.17;101817.16;5035892;28;45437;-49
2022/05/08 05:19:40;;;;;;;;;49.75;40.75;;;;;15.42;62.85;101826.75;5035133;28;45399;-46
2022/05/08 05:22:05;;;;;;;;;50.00;41.50;;;;;15.53;62.79;101831.56;5036123;28;45342;-50
2022/05/08 05:24:31;;;;;;;;;46.50;38.75;;;;;15.50;63.00;101814.56;5034754;28;45882;-50
2022/05/08 05:26:56;;;;;;;;;45.50;36.25;;;;;15.53;63.23;101830.75;5035956;28;45461;-46
2022/05/08 05:29:22;;;;;;;;;53.00;43.00;;;;;15.44;63.17;101836.50;5035956;28;45187;-47
2022/05/08 05:31:48;;;;;;;;;53.00;43.00;;;;;15.34;63.37;101821.44;5036214;28;45375;-49
2022/05/08 05:34:13;;;;;;;;;53.50;42.00;;;;;15.36;63.54;101833.16;5034531;28;45245;-49
2022/05/08 05:36:38;;;;;;;;;48.25;40.25;;;;;14.86;63.19;101755.22;5035873;28;45389;-44
2022/05/08 05:39:04;;;;;;;;;55.25;43.00;;;;;15.43;62.98;101845.88;5019635;28;45904;-47
2022/05/08 05:41:30;;;;;;;;;48.50;39.00;;;;;15.35;62.67;101835.03;5054073;28;45394;-49
2022/05/08 05:43:55;;;;;;;;;54.25;42.25;;;;;15.35;62.95;101840.56;5055908;28;45571;-48
2022/05/08 05:49:05;;;;;;;;;47.80;38.20;;;;;15.28;63.67;101843.38;5055645;28;45412;-47
2022/05/08 05:51:30;;;;;;;;;58.50;44.25;;;;;15.25;63.15;101820.81;5055875;28;45489;-46
2022/05/08 05:53:56;;;;;;;;;54.00;42.50;;;;;15.25;63.24;101818.91;5055793;28;46234;-47
2022/05/08 05:56:21;;;;;;;;;53.75;41.25;;;;;15.30;63.09;101821.88;5054356;28;45510;-50
2022/05/08 05:58:47;;;;;;;;;52.25;41.00;;;;;15.50;63.12;101859.69;5056052;28;45459;-46
2022/05/08 06:01:12;;;;;;;;;44.25;37.50;;;;;15.42;63.19;101857.16;5055496;28;45320;-47
2022/05/08 06:03:38;;;;;;;;;48.75;40.75;;;;;15.43;63.54;101861.63;5054574;28;47706;-50
2022/05/08 06:06:04;;;;;;;;;44.60;37.00;;;;;15.54;63.13;101860.94;5055739;28;45504;-49
2022/05/08 06:08:29;;;;;;;;;51.00;41.75;;;;;15.47;62.92;101839.91;5055855;28;45416;-46
2022/05/08 06:10:55;;;;;;;;;51.00;39.75;;;;;15.28;62.81;101824.03;5056213;28;45385;-44
2022/05/08 06:13:21;;;;;;;;;50.75;41.00;;;;;15.58;62.66;101867.75;5055397;28;46357;-48
2022/05/08 06:15:47;;;;;;;;;49.60;41.20;;;;;15.68;62.11;101869.19;5055880;28;45412;-49
2022/05/08 06:18:13;;;;;;;;;48.80;40.40;;;;;15.53;63.00;101867.53;5055759;28;45349;-49
2022/05/08 06:20:38;;;;;;;;;54.00;42.00;;;;;15.26;63.73;101833.59;5055750;28;45523;-49
2022/05/08 06:23:04;;;;;;;;;48.50;40.25;;;;;15.50;63.07;101867.13;5055659;28;45785;-46
2022/05/08 06:25:29;;;;;;;;;49.00;39.50;;;;;15.50;62.96;101873.53;5055195;28;45252;-45
2022/05/08 06:27:56;;;;;;;;;44.25;37.25;;;;;15.59;63.08;101874.97;5055694;28;45260;-47
2022/05/08 06:30:21;;;;;;;;;58.75;44.50;;;;;15.52;63.16;101882.44;5052295;28;45543;-47
2022/05/08 06:32:47;;;;;;;;;53.75;43.25;;;;;15.49;63.41;101870.97;5035440;28;45538;-46
2022/05/08 06:35:12;;;;;;;;;52.25;39.50;;;;;15.65;62.37;101883.47;5035185;28;45436;-49
2022/05/08 06:37:37;;;;;;;;;51.50;41.50;;;;;15.64;62.62;101881.78;5035041;28;45354;-49
2022/05/08 06:40:03;;;;;;;;;55.00;42.25;;;;;15.64;62.45;101873.47;5035273;28;45560;-49
2022/05/08 06:42:31;;;;;;;;;50.75;39.75;;;;;15.66;62.57;101883.25;5067297;28;46614;-46
2022/05/08 06:44:56;;;;;;;;;53.40;42.00;;;;;15.48;63.25;101872.88;5035139;28;45275;-46
2022/05/08 06:47:21;;;;;;;;;53.00;41.25;;;;;15.47;63.55;101881.41;5071212;28;45362;-46
2022/05/08 06:49:47;;;;;;;;;48.50;37.50;;;;;15.34;63.55;101873.97;5038724;28;45216;-47
2022/05/08 06:52:13;;;;;;;;;52.00;40.75;;;;;15.42;63.46;101890.38;5070552;28;48329;-48
2022/05/08 06:54:38;;;;;;;;;52.00;41.75;;;;;15.32;63.86;101885.28;5038574;28;45354;-46
2022/05/08 06:57:04;;;;;;;;;52.25;39.25;;;;;15.15;63.79;101860.84;5038096;28;45449;-45
2022/05/08 07:02:15;;;;;;;;;52.00;38.20;;;;;15.52;63.15;101890.75;5054122;28;45994;-47
2022/05/08 07:04:40;;;;;;;;;44.60;34.80;;;;;15.56;62.86;101891.16;5057319;28;45450;-47
2022/05/08 07:07:06;;;;;;;;;39.25;34.75;;;;;15.51;63.15;101900.13;5054041;28;45428;-44
2022/05/08 07:09:32;;;;;;;;;48.25;35.50;;;;;15.43;63.45;101879.06;5057974;28;45455;-44
2022/05/08 07:11:58;;;;;;;;;50.25;40.50;;;;;15.57;63.11;101898.38;5058166;28;45566;-46
2022/05/08 07:14:23;;;;;;;;;46.75;39.50;;;;;15.55;63.12;101887.56;5057980;28;45432;-46
2022/05/08 07:16:49;;;;;;;;;44.75;34.00;;;;;15.73;62.93;101897.06;5056937;28;45353;-48
2022/05/08 07:19:14;;;;;;;;;49.50;40.25;;;;;15.77;62.60;101897.47;5058947;28;45521;-45
2022/05/08 07:21:40;;;;;;;;;52.50;39.50;;;;;15.86;62.14;101905.31;5057985;28;45360;-47
2022/05/08 07:24:06;;;;;;;;;45.75;35.75;;;;;15.88;62.13;101910.63;5058277;28;45443;-47
2022/05/08 07:26:32;;;;;;;;;52.20;40.80;;;;;15.86;62.12;101898.94;5057824;28;45376;-50
2022/05/08 07:28:57;;;;;;;;;50.75;41.00;;;;;15.85;62.15;101903.63;5044233;28;45160;-49
2022/05/08 07:31:24;;;;;;;;;50.25;38.75;;;;;15.69;62.45;101881.97;5037197;28;45445;-47
2022/05/08 07:36:12;;;;;;;;;50.40;40.40;;;;;15.77;61.88;101878.09;5037144;28;45341;-48
2022/05/08 07:36:35;;;;;;;;;49.80;39.80;;;;;15.92;62.16;101911.94;5037745;28;45401;-46
2022/05/08 07:39:01;;;;;;;;;49.75;38.75;;;;;15.71;61.84;101886.19;5036131;28;45486;-47
2022/05/08 07:41:27;;;;;;;;;52.25;42.00;;;;;16.01;61.60;101917.22;5037538;28;46046;-50
2022/05/08 07:43:53;;;;;;;;;43.20;36.60;;;;;15.43;61.58;101834.78;4987817;27;45418;-50
2022/05/08 07:46:18;;;;;;;;;52.25;38.25;;;;;15.95;61.93;101918.97;5052106;28;45303;-50
2022/05/08 07:48:45;;;;;;;;;47.25;35.50;;;;;16.00;62.01;101921.91;5036126;28;45520;-47
2022/05/08 07:51:11;;;;;;;;;48.00;37.80;;;;;15.98;61.67;101913.84;5037144;28;45485;-48
2022/05/08 07:53:36;;;;;;;;;48.00;39.00;;;;;15.86;62.15;101908.09;5038009;28;45345;-47
2022/05/08 07:56:02;;;;;;;;;49.00;37.75;;;;;15.96;62.02;101924.25;5028454;28;45299;-46
2022/05/08 07:58:28;;;;;;;;;49.00;39.50;;;;;15.87;62.27;101917.25;5036485;28;45331;-48
2022/05/08 08:00:53;;;;;;;;;51.00;39.50;;;;;15.97;61.95;101919.59;5036948;28;45767;-49
2022/05/08 08:03:22;;;;;;;;;49.75;38.25;;;;;16.20;61.67;101930.13;5034951;28;45452;-46
2022/05/08 08:05:48;;;;;;;;;51.60;41.00;;;;;16.30;61.11;101935.19;5035741;28;45418;-49
2022/05/08 08:08:16;;;;;;;;;47.25;37.25;;;;;16.41;61.07;101936.41;5036232;28;45650;-48
2022/05/08 08:10:41;;;;;;;;;53.80;41.40;;;;;16.49;60.64;101927.81;5037409;28;46516;-49
2022/05/08 08:13:08;;;;;;;;;47.20;34.60;;;;;16.59;60.52;101929.28;5036822;28;45319;-48
2022/05/08 08:15:34;;;;;;;;;51.75;40.00;;;;;16.56;60.36;101933.34;5037396;28;45168;-48
2022/05/08 08:18:00;;;;;;;;;48.00;39.50;;;;;16.54;60.38;101938.22;5037434;28;45927;-52
2022/05/08 08:20:25;;;;;;;;;48.75;40.50;;;;;16.55;60.19;101951.03;5035674;28;46322;-48
2022/05/08 08:22:51;;;;;;;;;46.50;37.25;;;;;16.43;60.28;101937.03;4992614;27;45388;-47
2022/05/08 08:25:16;;;;;;;;;50.75;40.25;;;;;16.35;60.71;101927.06;5036880;28;45431;-48
2022/05/08 08:27:42;;;;;;;;;49.00;38.75;;;;;16.34;61.12;101932.81;5037179;28;45381;-49
2022/05/08 08:30:08;;;;;;;;;48.00;37.50;;;;;16.35;61.14;101932.59;5036944;28;45991;-48
2022/05/08 08:32:33;;;;;;;;;52.40;39.60;;;;;16.18;61.00;101899.03;5026079;28;45421;-46
2022/05/08 08:34:59;;;;;;;;;32.00;26.00;;;;;16.19;60.82;101889.66;5057253;28;45417;-52
2022/05/08 08:37:24;;;;;;;;;51.50;39.75;;;;;16.52;60.43;101930.16;5055610;28;45524;-48
2022/05/08 08:39:50;;;;;;;;;51.25;38.50;;;;;16.63;60.14;101939.69;5056723;28;45511;-46
2022/05/08 08:42:26;;;;;;;;;52.25;42.25;;;;;16.63;60.26;101936.91;5056742;28;45371;-47
2022/05/08 08:47:45;;;;;;;;;50.80;37.80;;;;;16.69;60.22;101937.91;5055797;28;45521;-50
2022/05/08 08:50:11;;;;;;;;;47.20;37.20;;;;;16.53;60.46;101945.72;5055297;28;45461;-48
2022/05/08 08:52:37;;;;;;;;;48.50;38.00;;;;;16.55;60.19;101937.19;5056260;28;45306;-51
2022/05/08 08:55:05;;;;;;;;;49.50;41.75;;;;;16.53;59.91;101933.75;5055571;28;45291;-52
2022/05/08 08:57:30;;;;;;;;;48.60;39.20;;;;;16.36;59.97;101914.91;5054347;28;45567;-46
2022/05/08 08:59:56;;;;;;;;;48.25;37.75;;;;;16.51;60.38;101935.91;5055220;28;45751;-50
2022/05/08 09:02:22;;;;;;;;;49.25;36.25;;;;;16.56;60.19;101938.00;5056278;28;45470;-51
2022/05/08 09:04:51;;;;;;;;;54.00;40.25;;;;;16.45;60.59;101931.25;5056489;28;45369;-48
2022/05/08 09:07:48;;;;;;;;;47.80;38.20;;;;;16.52;60.64;101932.06;5056532;28;45332;-48
2022/05/08 09:10:21;;;;;;;;;51.00;39.60;;;;;16.56;59.99;101911.16;5054505;28;46154;-48
2022/05/08 09:12:52;;;;;;;;;51.80;39.40;;;;;16.74;59.51;101917.84;5055919;28;45278;-48
2022/05/08 09:15:31;;;;;;;;;53.40;41.20;;;;;16.90;59.25;101941.38;5056544;28;45388;-52
2022/05/08 09:18:03;;;;;;;;;48.60;40.40;;;;;16.94;59.16;101937.09;5056279;28;45388;-49
2022/05/08 09:20:33;;;;;;;;;52.80;40.80;;;;;16.90;59.17;101928.38;5051566;28;45431;-50
2022/05/08 09:23:02;;;;;;;;;48.60;38.60;;;;;17.04;59.16;101945.78;5067945;28;45481;-52
2022/05/08 09:25:57;;;;;;;;;49.40;39.00;;;;;16.94;58.95;101913.00;5035776;28;45455;-48
2022/05/08 09:28:31;;;;;;;;;51.40;40.80;;;;;17.04;58.88;101931.06;5036089;28;45358;-49
2022/05/08 09:30:58;;;;;;;;;48.40;37.40;;;;;17.14;59.22;101936.13;5035927;28;46472;-47
2022/05/08 09:33:28;;;;;;;;;51.60;41.00;;;;;17.20;58.70;101944.34;5043235;28;45439;-49
2022/05/08 09:35:54;;;;;;;;;50.40;41.60;;;;;17.24;58.49;101943.91;5056109;28;45860;-50
2022/05/08 09:38:19;;;;;;;;;58.00;44.75;;;;;17.23;58.64;101940.28;5055834;28;45398;-51
2022/05/08 09:40:45;;;;;;;;;56.25;42.00;;;;;17.12;58.81;101939.09;5055355;28;45349;-47
2022/05/08 09:43:29;;;;;;;;;52.25;42.25;;;;;16.92;58.91;101908.75;5040674;28;46433;-51
2022/05/08 09:45:58;;;;;;;;;51.80;40.20;;;;;17.18;58.45;101945.69;5038928;28;45546;-49
2022/05/08 09:48:27;;;;;;;;;45.60;38.20;;;;;17.26;58.60;101945.41;5056053;28;45496;-49
2022/05/08 09:50:58;;;;;;;;;49.20;41.00;;;;;17.38;58.34;101942.72;5055545;28;45668;-49
2022/05/08 09:53:24;;;;;;;;;57.00;42.60;;;;;17.45;57.99;101931.56;5055348;28;45247;-47
2022/05/08 09:55:52;;;;;;;;;53.60;42.60;;;;;17.33;58.42;101942.53;5055417;28;45283;-50
2022/05/08 09:58:18;;;;;;;;;53.20;42.60;;;;;17.47;58.23;101930.22;5008364;28;45649;-47
2022/05/08 10:00:45;;;;;;;;;56.50;44.00;;;;;17.56;57.78;101930.78;5032887;28;45640;-54
2022/05/08 10:03:11;;;;;;;;;52.20;40.00;;;;;17.60;57.66;101942.25;5035256;28;45435;-49
2022/05/08 10:05:37;;;;;;;;;40.75;33.75;;;;;17.57;58.33;101917.75;5036002;28;45367;-52
2022/05/08 10:08:03;;;;;;;;;45.80;36.60;;;;;17.64;57.31;101888.00;5033971;28;45386;-50
2022/05/08 10:15:56;;;;;;;;;49.40;37.00;;;;;18.18;56.63;101922.63;5054477;28;45380;-52
2022/05/08 10:18:23;;;;;;;;;54.25;44.00;;;;;18.16;55.96;101892.28;5055474;28;45552;-48
2022/05/08 10:21:08;;;;;;;;;53.80;44.20;;;;;18.42;55.46;101916.03;5058016;28;45743;-48
2022/05/08 10:23:40;;;;;;;;;53.80;42.60;;;;;18.34;55.33;101902.50;5062125;28;45696;-50
2022/05/08 10:26:20;;;;;;;;;51.20;41.60;;;;;18.42;55.45;101918.81;5062147;28;45380;-50
2022/05/08 10:29:15;;;;;;;;;51.20;40.40;;;;;18.50;55.64;101923.22;5060962;28;45498;-46
2022/05/08 10:31:45;;;;;;;;;54.20;41.20;;;;;18.66;55.10;101909.69;5050504;28;46605;-49
2022/05/08 10:34:11;;;;;;;;;52.80;40.80;;;;;18.71;54.41;101907.06;5047868;28;45346;-48
2022/05/08 10:36:36;;;;;;;;;49.60;41.60;;;;;18.76;54.35;101904.41;5062560;28;45410;-49
2022/05/08 10:39:41;;;;;;;;;54.75;42.75;;;;;18.88;54.05;101914.72;5060453;28;45366;-51
2022/05/08 10:42:24;;;;;;;;;46.00;39.00;;;;;19.05;53.63;101904.59;5061672;28;45967;-50
2022/05/08 10:44:49;;;;;;;;;52.40;43.40;;;;;19.23;53.35;101913.94;5062041;28;45413;-51
2022/05/08 10:47:33;;;;;;;;;50.75;40.50;;;;;19.28;53.10;101900.13;5060023;28;45584;-51
2022/05/08 10:50:00;;;;;;;;;51.40;40.00;;;;;19.21;52.55;101889.13;5061964;28;45616;-55
2022/05/08 10:52:25;;;;;;;;;52.80;42.40;;;;;19.30;52.85;101908.22;5061320;28;46476;-54
2022/05/08 10:54:57;;;;;;;;;48.50;40.00;;;;;19.27;52.62;101875.31;5042255;28;45401;-49
2022/05/08 10:57:31;;;;;;;;;53.00;40.00;;;;;19.50;52.50;101908.72;5040257;28;45282;-47
2022/05/08 10:59:57;;;;;;;;;49.80;40.20;;;;;19.50;52.41;101917.06;5060624;28;45546;-49
2022/05/08 11:02:57;;;;;;;;;52.50;41.50;;;;;19.45;52.62;101900.25;5061121;28;45964;-47
2022/05/08 11:05:24;;;;;;;;;49.60;40.40;;;;;19.44;52.19;101872.63;5051763;27;45485;-49
2022/05/08 11:07:52;;;;;;;;;51.40;41.80;;;;;19.76;51.70;101902.84;5060061;28;45448;-49
2022/05/08 11:10:22;;;;;;;;;52.80;41.60;;;;;19.83;51.31;101905.47;5059817;28;45499;-48
2022/05/08 11:13:15;;;;;;;;;49.20;40.20;;;;;19.78;51.91;101901.50;5060820;28;45484;-51
2022/05/08 11:15:40;;;;;;;;;50.40;40.20;;;;;19.91;51.90;101891.19;5059163;28;45348;-49
2022/05/08 11:18:17;;;;;;;;;50.00;40.75;;;;;19.90;51.08;101867.19;5029670;28;46249;-49
2022/05/08 11:20:46;;;;;;;;;49.80;39.80;;;;;20.16;51.02;101893.66;5056586;27;45751;-51
2022/05/08 11:23:12;;;;;;;;;49.40;38.80;;;;;20.14;50.89;101884.69;5016281;28;46923;-56
2022/05/08 11:25:38;;;;;;;;;50.80;40.80;;;;;20.28;50.51;101889.97;5047031;28;45660;-54
2022/05/08 11:28:35;;;;;;;;;51.00;41.50;;;;;20.38;50.47;101895.72;5018317;28;45744;-51
2022/05/08 11:31:11;;;;;;;;;49.80;39.80;;;;;20.45;50.46;101893.63;5050078;28;45789;-53
2022/05/08 11:36:30;;;;;;;;;49.20;40.60;;;;;20.27;49.27;101858.44;5031956;28;45441;-49
2022/05/08 11:39:04;;;;;;;;;53.00;40.40;;;;;20.49;49.68;101880.03;5033574;28;45361;-56